createdAt,value
2017-03-05T00:00:27.714Z,989.49
2017-03-05T00:01:27.721Z,989.55
2017-03-05T00:02:27.727Z,989.58
2017-03-05T00:03:27.735Z,989.67
2017-03-05T00:04:28.388Z,989.67
2017-03-05T00:05:27.945Z,989.76
2017-03-05T00:06:27.749Z,989.74
2017-03-05T00:07:27.755Z,989.81
2017-03-05T00:08:27.763Z,989.83
2017-03-05T00:09:27.768Z,989.85
2017-03-05T00:10:27.773Z,989.82
2017-03-05T00:11:27.778Z,989.94
2017-03-05T00:12:27.786Z,989.95
2017-03-05T00:13:27.792Z,989.94
2017-03-05T00:14:27.848Z,989.86
2017-03-05T00:15:27.805Z,989.89
2017-03-05T00:16:27.810Z,989.94
2017-03-05T00:17:27.815Z,989.92
2017-03-05T00:18:27.822Z,989.9
2017-03-05T00:19:27.829Z,989.93
2017-03-05T00:20:27.935Z,989.9
2017-03-05T00:21:27.840Z,989.88
2017-03-05T00:22:27.847Z,989.81
2017-03-05T00:23:28.103Z,989.85
2017-03-05T00:24:27.858Z,989.88
2017-03-05T00:25:27.864Z,989.87
2017-03-05T00:26:27.871Z,989.93
2017-03-05T00:27:27.878Z,989.96
2017-03-05T00:28:27.883Z,990.07
2017-03-05T00:29:28.888Z,990.02
2017-03-05T00:30:27.894Z,990.1
2017-03-05T00:31:27.899Z,990.09
2017-03-05T00:32:27.908Z,990.11
2017-03-05T00:33:27.914Z,990.13
2017-03-05T00:34:27.968Z,990.21
2017-03-05T00:35:27.975Z,990.29
2017-03-05T00:36:27.932Z,990.26
2017-03-05T00:37:27.936Z,990.31
2017-03-05T00:38:27.945Z,990.31
2017-03-05T00:39:27.949Z,990.36
2017-03-05T00:40:27.956Z,990.38
2017-03-05T00:41:27.963Z,990.36
2017-03-05T00:42:27.967Z,990.34
2017-03-05T00:43:27.973Z,990.34
2017-03-05T00:44:27.979Z,990.34
2017-03-05T00:45:28.036Z,990.34
2017-03-05T00:46:27.989Z,990.41
2017-03-05T00:47:27.998Z,990.42
2017-03-05T00:48:28.004Z,990.42
2017-03-05T00:49:28.008Z,990.48
2017-03-05T00:50:28.016Z,990.44
2017-03-05T00:51:28.622Z,990.47
2017-03-05T00:52:28.080Z,990.5
2017-03-05T00:53:28.034Z,990.48
2017-03-05T00:54:28.038Z,990.52
2017-03-05T00:55:28.044Z,990.59
2017-03-05T00:56:28.052Z,990.56
2017-03-05T00:57:28.110Z,990.62
2017-03-05T00:58:28.064Z,990.63
2017-03-05T00:59:28.070Z,990.65
2017-03-05T01:00:28.075Z,990.63
2017-03-05T01:01:28.081Z,990.64
2017-03-05T01:02:28.086Z,990.66
2017-03-05T01:03:28.094Z,990.69
2017-03-05T01:04:28.499Z,990.7
2017-03-05T01:05:28.106Z,990.68
2017-03-05T01:06:28.512Z,990.68
2017-03-05T01:07:28.119Z,990.69
2017-03-05T01:08:28.124Z,990.75
2017-03-05T01:09:28.130Z,990.74
2017-03-05T01:10:28.135Z,990.74
2017-03-05T01:11:28.142Z,990.75
2017-03-05T01:12:28.147Z,990.78
2017-03-05T01:13:28.155Z,990.77
2017-03-05T01:14:28.210Z,990.77
2017-03-05T01:15:29.277Z,990.75
2017-03-05T01:16:28.170Z,990.76
2017-03-05T01:17:28.177Z,990.83
2017-03-05T01:18:28.184Z,990.8
2017-03-05T01:19:28.191Z,990.86
2017-03-05T01:20:28.195Z,990.85
2017-03-05T01:21:28.203Z,990.9
2017-03-05T01:22:28.257Z,990.91
2017-03-05T01:23:28.213Z,990.89
2017-03-05T01:24:28.219Z,990.92
2017-03-05T01:25:28.278Z,990.99
2017-03-05T01:26:28.231Z,990.96
2017-03-05T01:27:28.237Z,990.94
2017-03-05T01:28:28.245Z,990.95
2017-03-05T01:29:28.301Z,990.94
2017-03-05T01:30:28.256Z,990.97
2017-03-05T01:31:28.263Z,990.92
2017-03-05T01:32:28.319Z,990.96
2017-03-05T01:33:28.275Z,990.96
2017-03-05T01:34:28.281Z,990.94
2017-03-05T01:35:28.288Z,990.96
2017-03-05T01:36:28.296Z,990.99
2017-03-05T01:37:29.200Z,990.94
2017-03-05T01:38:28.305Z,990.96
2017-03-05T01:39:28.311Z,990.97
2017-03-05T01:40:28.317Z,990.96
2017-03-05T01:41:28.322Z,990.95
2017-03-05T01:42:28.330Z,990.9
2017-03-05T01:43:28.335Z,990.94
2017-03-05T01:44:28.341Z,990.98
2017-03-05T01:45:28.346Z,990.94
2017-03-05T01:46:28.354Z,991
2017-03-05T01:47:28.360Z,990.95
2017-03-05T01:48:28.365Z,990.95
2017-03-05T01:49:28.422Z,990.92
2017-03-05T01:50:28.428Z,990.93
2017-03-05T01:51:28.383Z,990.96
2017-03-05T01:52:29.339Z,990.9
2017-03-05T01:53:28.394Z,990.94
2017-03-05T01:54:28.398Z,990.92
2017-03-05T01:55:28.406Z,990.9
2017-03-05T01:56:28.464Z,990.92
2017-03-05T01:57:28.420Z,990.9
2017-03-05T01:58:28.425Z,990.94
2017-03-05T01:59:28.431Z,990.87
2017-03-05T02:00:28.436Z,990.93
2017-03-05T02:01:28.444Z,990.91
2017-03-05T02:02:28.449Z,990.95
2017-03-05T02:03:28.453Z,990.92
2017-03-05T02:04:28.461Z,990.92
2017-03-05T02:05:28.469Z,990.93
2017-03-05T02:06:28.473Z,990.91
2017-03-05T02:07:28.478Z,990.98
2017-03-05T02:08:28.485Z,990.97
2017-03-05T02:09:28.542Z,991
2017-03-05T02:10:28.547Z,990.99
2017-03-05T02:11:28.553Z,991.04
2017-03-05T02:12:28.509Z,991.07
2017-03-05T02:13:28.516Z,991.04
2017-03-05T02:14:29.022Z,991.07
2017-03-05T02:15:28.526Z,991.05
2017-03-05T02:16:28.535Z,991.05
2017-03-05T02:17:28.540Z,991.08
2017-03-05T02:18:28.545Z,991.09
2017-03-05T02:19:28.551Z,991.07
2017-03-05T02:20:28.557Z,991.15
2017-03-05T02:21:28.563Z,991.08
2017-03-05T02:22:28.568Z,991.15
2017-03-05T02:23:28.599Z,991.11
2017-03-05T02:24:28.580Z,991.14
2017-03-05T02:25:28.586Z,991.2
2017-03-05T02:26:28.592Z,991.23
2017-03-05T02:27:28.601Z,991.22
2017-03-05T02:28:28.606Z,991.24
2017-03-05T02:29:28.611Z,991.2
2017-03-05T02:30:28.617Z,991.23
2017-03-05T02:31:28.624Z,991.23
2017-03-05T02:32:28.629Z,991.27
2017-03-05T02:33:28.637Z,991.18
2017-03-05T02:34:28.642Z,991.2
2017-03-05T02:35:28.648Z,991.24
2017-03-05T02:36:29.055Z,991.28
2017-03-05T02:37:28.659Z,991.27
2017-03-05T02:38:28.666Z,991.24
2017-03-05T02:39:28.671Z,991.24
2017-03-05T02:40:28.678Z,991.25
2017-03-05T02:41:28.683Z,991.23
2017-03-05T02:42:28.741Z,991.27
2017-03-05T02:43:28.695Z,991.24
2017-03-05T02:44:28.752Z,991.25
2017-03-05T02:45:28.706Z,991.26
2017-03-05T02:46:28.712Z,991.29
2017-03-05T02:47:28.720Z,991.28
2017-03-05T02:48:28.725Z,991.31
2017-03-05T02:49:28.733Z,991.3
2017-03-05T02:50:28.737Z,991.31
2017-03-05T02:51:28.792Z,991.3
2017-03-05T02:52:28.749Z,991.32
2017-03-05T02:53:28.755Z,991.31
2017-03-05T02:54:28.762Z,991.35
2017-03-05T02:55:28.766Z,991.35
2017-03-05T02:56:28.774Z,991.39
2017-03-05T02:57:28.777Z,991.31
2017-03-05T02:58:28.783Z,991.31
2017-03-05T02:59:28.791Z,991.35
2017-03-05T03:00:29.748Z,991.37
2017-03-05T03:01:28.802Z,991.38
2017-03-05T03:02:28.806Z,991.32
2017-03-05T03:03:28.814Z,991.4
2017-03-05T03:04:28.820Z,991.35
2017-03-05T03:05:28.825Z,991.42
2017-03-05T03:06:28.831Z,991.38
2017-03-05T03:07:28.888Z,991.41
2017-03-05T03:08:28.844Z,991.4
2017-03-05T03:09:28.850Z,991.41
2017-03-05T03:10:28.856Z,991.44
2017-03-05T03:11:28.909Z,991.46
2017-03-05T03:12:28.867Z,991.4
2017-03-05T03:13:28.872Z,991.43
2017-03-05T03:14:28.879Z,991.45
2017-03-05T03:15:28.885Z,991.48
2017-03-05T03:16:28.890Z,991.46
2017-03-05T03:17:28.895Z,991.49
2017-03-05T03:18:28.901Z,991.49
2017-03-05T03:19:28.908Z,991.51
2017-03-05T03:20:28.913Z,991.51
2017-03-05T03:21:28.920Z,991.49
2017-03-05T03:22:29.326Z,991.56
2017-03-05T03:23:28.932Z,991.53
2017-03-05T03:24:28.937Z,991.53
2017-03-05T03:25:28.942Z,991.54
2017-03-05T03:26:28.950Z,991.57
2017-03-05T03:27:28.955Z,991.58
2017-03-05T03:28:28.961Z,991.57
2017-03-05T03:29:29.031Z,991.59
2017-03-05T03:30:28.972Z,991.62
2017-03-05T03:31:29.028Z,991.58
2017-03-05T03:32:29.011Z,991.59
2017-03-05T03:33:28.992Z,991.67
2017-03-05T03:34:28.997Z,991.66
2017-03-05T03:35:29.003Z,991.66
2017-03-05T03:36:29.008Z,991.68
2017-03-05T03:37:29.013Z,991.7
2017-03-05T03:38:29.020Z,991.66
2017-03-05T03:39:29.075Z,991.71
2017-03-05T03:40:29.031Z,991.73
2017-03-05T03:41:29.036Z,991.73
2017-03-05T03:42:29.055Z,991.73
2017-03-05T03:43:29.048Z,991.76
2017-03-05T03:44:29.105Z,991.77
2017-03-05T03:45:29.061Z,991.81
2017-03-05T03:46:30.168Z,991.84
2017-03-05T03:47:29.124Z,991.78
2017-03-05T03:48:29.079Z,991.85
2017-03-05T03:49:29.084Z,991.9
2017-03-05T03:50:29.090Z,991.92
2017-03-05T03:51:29.147Z,992
2017-03-05T03:52:29.102Z,991.92
2017-03-05T03:53:29.108Z,991.96
2017-03-05T03:54:29.115Z,991.95
2017-03-05T03:55:29.120Z,992
2017-03-05T03:56:29.124Z,991.94
2017-03-05T03:57:29.131Z,992
2017-03-05T03:58:29.137Z,991.94
2017-03-05T03:59:29.144Z,992
2017-03-05T04:00:29.150Z,991.99
2017-03-05T04:01:29.156Z,992.02
2017-03-05T04:02:29.161Z,992.08
2017-03-05T04:03:29.166Z,992.09
2017-03-05T04:04:29.171Z,992.08
2017-03-05T04:05:29.178Z,992.08
2017-03-05T04:06:29.186Z,992.08
2017-03-05T04:07:29.191Z,992.08
2017-03-05T04:08:29.946Z,992.13
2017-03-05T04:09:29.203Z,992.16
2017-03-05T04:10:29.256Z,992.18
2017-03-05T04:11:29.214Z,992.18
2017-03-05T04:12:29.219Z,992.25
2017-03-05T04:13:29.226Z,992.24
2017-03-05T04:14:29.229Z,992.14
2017-03-05T04:15:29.237Z,992.27
2017-03-05T04:16:29.244Z,992.26
2017-03-05T04:17:29.249Z,992.26
2017-03-05T04:18:29.255Z,992.25
2017-03-05T04:19:29.259Z,992.33
2017-03-05T04:20:29.267Z,992.3
2017-03-05T04:21:29.293Z,992.34
2017-03-05T04:22:29.275Z,992.29
2017-03-05T04:23:29.284Z,992.25
2017-03-05T04:24:29.290Z,992.32
2017-03-05T04:25:29.294Z,992.3
2017-03-05T04:26:29.302Z,992.36
2017-03-05T04:27:29.311Z,992.31
2017-03-05T04:28:29.314Z,992.37
2017-03-05T04:29:29.319Z,992.36
2017-03-05T04:30:29.926Z,992.35
2017-03-05T04:31:29.331Z,992.35
2017-03-05T04:32:29.336Z,992.39
2017-03-05T04:33:29.342Z,992.31
2017-03-05T04:34:29.348Z,992.38
2017-03-05T04:35:29.406Z,992.33
2017-03-05T04:36:29.360Z,992.34
2017-03-05T04:37:29.367Z,992.36
2017-03-05T04:38:29.374Z,992.36
2017-03-05T04:39:29.378Z,992.34
2017-03-05T04:40:29.382Z,992.26
2017-03-05T04:41:29.391Z,992.32
2017-03-05T04:42:29.447Z,992.29
2017-03-05T04:43:29.402Z,992.38
2017-03-05T04:44:29.407Z,992.36
2017-03-05T04:45:29.413Z,992.41
2017-03-05T04:46:29.418Z,992.38
2017-03-05T04:47:29.424Z,992.36
2017-03-05T04:48:29.432Z,992.38
2017-03-05T04:49:29.437Z,992.37
2017-03-05T04:50:29.442Z,992.37
2017-03-05T04:51:29.449Z,992.4
2017-03-05T04:52:29.456Z,992.41
2017-03-05T04:53:29.461Z,992.39
2017-03-05T04:54:30.601Z,992.42
2017-03-05T04:55:29.471Z,992.44
2017-03-05T04:56:29.477Z,992.44
2017-03-05T04:57:29.486Z,992.44
2017-03-05T04:58:29.490Z,992.49
2017-03-05T04:59:29.495Z,992.49
2017-03-05T05:00:29.503Z,992.54
2017-03-05T05:01:29.559Z,992.56
2017-03-05T05:02:29.513Z,992.46
2017-03-05T05:03:29.570Z,992.56
2017-03-05T05:04:29.525Z,992.58
2017-03-05T05:05:29.581Z,992.56
2017-03-05T05:06:29.538Z,992.63
2017-03-05T05:07:29.545Z,992.59
2017-03-05T05:08:29.600Z,992.63
2017-03-05T05:09:29.604Z,992.62
2017-03-05T05:10:29.610Z,992.62
2017-03-05T05:11:29.617Z,992.61
2017-03-05T05:12:29.574Z,992.62
2017-03-05T05:13:29.579Z,992.59
2017-03-05T05:14:29.635Z,992.6
2017-03-05T05:15:29.592Z,992.66
2017-03-05T05:16:30.497Z,992.64
2017-03-05T05:17:29.601Z,992.67
2017-03-05T05:18:29.658Z,992.67
2017-03-05T05:19:29.615Z,992.7
2017-03-05T05:20:29.671Z,992.65
2017-03-05T05:21:29.626Z,992.69
2017-03-05T05:22:29.632Z,992.71
2017-03-05T05:23:29.642Z,992.7
2017-03-05T05:24:29.643Z,992.71
2017-03-05T05:25:29.698Z,992.77
2017-03-05T05:26:29.656Z,992.7
2017-03-05T05:27:29.661Z,992.77
2017-03-05T05:28:29.669Z,992.75
2017-03-05T05:29:29.723Z,992.76
2017-03-05T05:30:29.678Z,992.79
2017-03-05T05:31:29.683Z,992.83
2017-03-05T05:32:29.741Z,992.78
2017-03-05T05:33:29.695Z,992.8
2017-03-05T05:34:29.753Z,992.85
2017-03-05T05:35:29.759Z,992.86
2017-03-05T05:36:29.765Z,992.8
2017-03-05T05:37:29.770Z,992.89
2017-03-05T05:38:30.128Z,992.87
2017-03-05T05:39:29.781Z,992.96
2017-03-05T05:40:29.788Z,992.9
2017-03-05T05:41:29.745Z,992.92
2017-03-05T05:42:29.749Z,992.94
2017-03-05T05:43:29.756Z,992.97
2017-03-05T05:44:29.761Z,993
2017-03-05T05:45:29.766Z,993.01
2017-03-05T05:46:29.824Z,993.07
2017-03-05T05:47:29.830Z,993.06
2017-03-05T05:48:29.785Z,993.05
2017-03-05T05:49:29.792Z,993.08
2017-03-05T05:50:29.797Z,993.1
2017-03-05T05:51:29.804Z,993.13
2017-03-05T05:52:29.808Z,993.19
2017-03-05T05:53:29.964Z,993.22
2017-03-05T05:54:29.820Z,993.21
2017-03-05T05:55:29.877Z,993.19
2017-03-05T05:56:29.832Z,993.2
2017-03-05T05:57:29.888Z,993.26
2017-03-05T05:58:29.845Z,993.22
2017-03-05T05:59:30.201Z,993.25
2017-03-05T06:00:29.855Z,993.33
2017-03-05T06:01:29.862Z,993.26
2017-03-05T06:02:30.970Z,993.27
2017-03-05T06:03:29.873Z,993.29
2017-03-05T06:04:29.881Z,993.3
2017-03-05T06:05:29.935Z,993.37
2017-03-05T06:06:29.892Z,993.36
2017-03-05T06:07:29.945Z,993.41
2017-03-05T06:08:29.903Z,993.33
2017-03-05T06:09:29.920Z,993.4
2017-03-05T06:10:29.966Z,993.37
2017-03-05T06:11:29.970Z,993.45
2017-03-05T06:12:29.927Z,993.45
2017-03-05T06:13:29.983Z,993.46
2017-03-05T06:14:29.940Z,993.46
2017-03-05T06:15:29.945Z,993.52
2017-03-05T06:16:29.951Z,993.58
2017-03-05T06:17:30.005Z,993.52
2017-03-05T06:18:29.962Z,993.61
2017-03-05T06:19:30.018Z,993.52
2017-03-05T06:20:29.974Z,993.55
2017-03-05T06:21:29.981Z,993.61
2017-03-05T06:22:29.985Z,993.59
2017-03-05T06:23:29.992Z,993.63
2017-03-05T06:24:30.699Z,993.62
2017-03-05T06:25:30.055Z,993.63
2017-03-05T06:26:30.010Z,993.61
2017-03-05T06:27:30.065Z,993.63
2017-03-05T06:28:30.024Z,993.69
2017-03-05T06:29:30.029Z,993.71
2017-03-05T06:30:30.034Z,993.63
2017-03-05T06:31:30.040Z,993.64
2017-03-05T06:32:30.045Z,993.68
2017-03-05T06:33:30.100Z,993.69
2017-03-05T06:34:30.057Z,993.66
2017-03-05T06:35:30.064Z,993.79
2017-03-05T06:36:30.068Z,993.76
2017-03-05T06:37:30.124Z,993.78
2017-03-05T06:38:30.130Z,993.83
2017-03-05T06:39:30.687Z,993.85
2017-03-05T06:40:30.090Z,993.85
2017-03-05T06:41:30.148Z,993.82
2017-03-05T06:42:30.105Z,993.84
2017-03-05T06:43:30.110Z,993.84
2017-03-05T06:44:30.115Z,993.9
2017-03-05T06:45:30.122Z,993.82
2017-03-05T06:46:30.127Z,993.88
2017-03-05T06:47:30.184Z,993.86
2017-03-05T06:48:30.139Z,993.87
2017-03-05T06:49:30.143Z,993.91
2017-03-05T06:50:30.377Z,993.92
2017-03-05T06:51:30.159Z,993.91
2017-03-05T06:52:30.162Z,993.94
2017-03-05T06:53:30.168Z,993.95
2017-03-05T06:54:30.175Z,993.94
2017-03-05T06:55:30.180Z,993.99
2017-03-05T06:56:30.188Z,993.96
2017-03-05T06:57:30.242Z,993.88
2017-03-05T06:58:30.199Z,993.93
2017-03-05T06:59:30.254Z,993.95
2017-03-05T07:00:30.260Z,993.95
2017-03-05T07:01:30.367Z,993.95
2017-03-05T07:02:30.223Z,993.98
2017-03-05T07:03:30.229Z,993.97
2017-03-05T07:04:30.233Z,994.01
2017-03-05T07:05:30.290Z,993.99
2017-03-05T07:06:30.295Z,994.01
2017-03-05T07:07:30.551Z,993.97
2017-03-05T07:08:30.258Z,994.04
2017-03-05T07:09:30.314Z,994.04
2017-03-05T07:10:31.371Z,994.08
2017-03-05T07:11:30.327Z,994.05
2017-03-05T07:12:30.283Z,994.08
2017-03-05T07:13:30.288Z,994.08
2017-03-05T07:14:30.295Z,994.12
2017-03-05T07:15:30.301Z,994.1
2017-03-05T07:16:30.306Z,994.11
2017-03-05T07:17:30.311Z,994.1
2017-03-05T07:18:30.320Z,994.09
2017-03-05T07:19:30.376Z,994.11
2017-03-05T07:20:30.331Z,994.09
2017-03-05T07:21:30.334Z,994.15
2017-03-05T07:22:30.394Z,994.1
2017-03-05T07:23:30.349Z,994.15
2017-03-05T07:24:31.105Z,994.16
2017-03-05T07:25:31.361Z,994.15
2017-03-05T07:26:30.368Z,994.16
2017-03-05T07:27:30.372Z,994.21
2017-03-05T07:28:30.427Z,994.2
2017-03-05T07:29:30.385Z,994.2
2017-03-05T07:30:30.440Z,994.12
2017-03-05T07:31:30.445Z,994.14
2017-03-05T07:32:30.451Z,994.14
2017-03-05T07:33:30.409Z,994.14
2017-03-05T07:34:30.415Z,994.14
2017-03-05T07:35:30.470Z,994.18
2017-03-05T07:36:30.426Z,994.13
2017-03-05T07:37:30.483Z,994.2
2017-03-05T07:38:30.440Z,994.2
2017-03-05T07:39:30.444Z,994.11
2017-03-05T07:40:30.503Z,994.15
2017-03-05T07:41:30.511Z,994.12
2017-03-05T07:42:30.513Z,994.18
2017-03-05T07:43:30.469Z,994.17
2017-03-05T07:44:30.525Z,994.14
2017-03-05T07:45:30.482Z,994.18
2017-03-05T07:46:30.488Z,994.11
2017-03-05T07:47:31.094Z,994.13
2017-03-05T07:48:30.502Z,994.17
2017-03-05T07:49:30.556Z,994.11
2017-03-05T07:50:30.512Z,994.14
2017-03-05T07:51:30.518Z,994.11
2017-03-05T07:52:30.525Z,994.09
2017-03-05T07:53:30.582Z,994.13
2017-03-05T07:54:30.587Z,994.05
2017-03-05T07:55:30.542Z,994.09
2017-03-05T07:56:31.725Z,994.08
2017-03-05T07:57:30.605Z,994.07
2017-03-05T07:58:30.611Z,994.11
2017-03-05T07:59:30.570Z,994.05
2017-03-05T08:00:30.573Z,994.03
2017-03-05T08:01:30.581Z,994.05
2017-03-05T08:02:30.586Z,994.02
2017-03-05T08:03:30.594Z,994.09
2017-03-05T08:04:30.648Z,994.1
2017-03-05T08:05:30.656Z,994.1
2017-03-05T08:06:30.661Z,994
2017-03-05T08:07:30.618Z,994.04
2017-03-05T08:08:30.624Z,994.09
2017-03-05T08:09:30.630Z,994.14
2017-03-05T08:10:30.637Z,994.1
2017-03-05T08:11:31.744Z,994.59
2017-03-05T08:12:30.649Z,994.64
2017-03-05T08:13:30.708Z,994.62
2017-03-05T08:14:30.666Z,994.66
2017-03-05T08:15:30.722Z,994.16
2017-03-05T08:16:30.681Z,994.67
2017-03-05T08:17:30.689Z,994.74
2017-03-05T08:18:30.748Z,994.53
2017-03-05T08:19:30.705Z,994.36
2017-03-05T08:20:30.767Z,994.73
2017-03-05T08:21:30.724Z,994.68
2017-03-05T08:22:30.736Z,994.71
2017-03-05T08:23:30.794Z,994.6
2017-03-05T08:24:30.802Z,994.71
2017-03-05T08:25:30.813Z,994.73
2017-03-05T08:26:30.821Z,994.71
2017-03-05T08:27:30.832Z,994.28
2017-03-05T08:28:30.841Z,994.07
2017-03-05T08:29:30.799Z,994.09
2017-03-05T08:30:30.808Z,994.34
2017-03-05T08:31:30.817Z,994.06
2017-03-05T08:32:30.827Z,994.13
2017-03-05T08:33:31.484Z,994.14
2017-03-05T08:34:30.842Z,994.06
2017-03-05T08:35:30.849Z,994.13
2017-03-05T08:36:30.858Z,994.06
2017-03-05T08:37:30.863Z,994.1
2017-03-05T08:38:30.873Z,994.65
2017-03-05T08:39:30.880Z,994.05
2017-03-05T08:40:30.939Z,994.12
2017-03-05T08:41:30.894Z,994.03
2017-03-05T08:42:30.900Z,994.07
2017-03-05T08:43:30.910Z,994.11
2017-03-05T08:44:30.915Z,994.18
2017-03-05T08:45:30.973Z,994.15
2017-03-05T08:46:30.982Z,994.24
2017-03-05T08:47:30.938Z,994.5
2017-03-05T08:48:30.944Z,994.77
2017-03-05T08:49:30.951Z,994.24
2017-03-05T08:50:30.961Z,994.06
2017-03-05T08:51:30.967Z,994.13
2017-03-05T08:52:30.977Z,994.21
2017-03-05T08:53:30.983Z,994.06
2017-03-05T08:54:30.991Z,994.54
2017-03-05T08:55:30.999Z,994.69
2017-03-05T08:56:31.081Z,994.04
2017-03-05T08:57:32.139Z,994.15
2017-03-05T08:58:31.022Z,994.74
2017-03-05T08:59:31.030Z,994.69
2017-03-05T09:00:31.040Z,994.61
2017-03-05T09:01:31.100Z,993.94
2017-03-05T09:02:31.108Z,994.38
2017-03-05T09:03:31.067Z,994.67
2017-03-05T09:04:31.075Z,994.69
2017-03-05T09:05:31.083Z,994.5
2017-03-05T09:06:31.093Z,993.93
2017-03-05T09:07:31.106Z,994.32
2017-03-05T09:08:31.161Z,994.42
2017-03-05T09:09:31.120Z,993.87
2017-03-05T09:10:31.180Z,994.48
2017-03-05T09:11:31.138Z,994.48
2017-03-05T09:12:31.149Z,994.42
2017-03-05T09:13:31.159Z,994.32
2017-03-05T09:15:31.228Z,994.23
2017-03-05T09:16:31.190Z,994.32
2017-03-05T09:17:31.200Z,994.51
2017-03-05T09:18:31.209Z,994.54
2017-03-05T09:19:32.372Z,994.51
2017-03-05T09:20:31.282Z,994.52
2017-03-05T09:21:31.541Z,993.72
2017-03-05T09:22:31.253Z,994.46
2017-03-05T09:23:31.315Z,994.39
2017-03-05T09:24:31.275Z,993.87
2017-03-05T09:25:31.334Z,994.49
2017-03-05T09:26:31.295Z,994.41
2017-03-05T09:27:31.359Z,994.47
2017-03-05T09:28:31.317Z,994.49
2017-03-05T09:29:31.329Z,994.48
2017-03-05T09:30:31.340Z,994.49
2017-03-05T09:31:31.352Z,994.42
2017-03-05T09:32:31.361Z,994.44
2017-03-05T09:33:31.373Z,994.43
2017-03-05T09:34:31.386Z,994.37
2017-03-05T09:35:31.395Z,994.41
2017-03-05T09:36:31.457Z,994.17
2017-03-05T09:37:31.418Z,994.01
2017-03-05T09:38:31.429Z,993.73
2017-03-05T09:39:31.487Z,993.76
2017-03-05T09:40:31.446Z,993.68
2017-03-05T09:41:32.006Z,993.75
2017-03-05T09:42:31.464Z,993.73
2017-03-05T09:43:31.474Z,993.69
2017-03-05T09:44:31.532Z,993.66
2017-03-05T09:45:31.491Z,993.7
2017-03-05T09:46:31.499Z,993.64
2017-03-05T09:47:31.508Z,993.6
2017-03-05T09:48:31.565Z,993.6
2017-03-05T09:49:31.673Z,993.61
2017-03-05T09:50:31.530Z,993.57
2017-03-05T09:51:31.538Z,993.66
2017-03-05T09:52:31.646Z,993.59
2017-03-05T09:53:31.605Z,993.56
2017-03-05T09:54:31.564Z,993.59
2017-03-05T09:55:31.620Z,993.59
2017-03-05T09:56:31.576Z,993.57
2017-03-05T09:57:31.584Z,993.58
2017-03-05T09:58:31.590Z,993.49
2017-03-05T09:59:32.548Z,993.52
2017-03-05T10:00:31.606Z,993.61
2017-03-05T10:01:31.611Z,993.51
2017-03-05T10:02:31.620Z,993.59
2017-03-05T10:03:31.826Z,993.55
2017-03-05T10:04:31.634Z,993.51
2017-03-05T10:05:31.691Z,993.53
2017-03-05T10:06:31.701Z,993.56
2017-03-05T10:07:31.656Z,993.54
2017-03-05T10:08:31.668Z,993.51
2017-03-05T10:09:31.667Z,993.54
2017-03-05T10:10:31.678Z,993.5
2017-03-05T10:11:31.686Z,993.53
2017-03-05T10:12:31.689Z,993.48
2017-03-05T10:13:31.697Z,993.52
2017-03-05T10:14:31.703Z,993.47
2017-03-05T10:15:31.709Z,993.51
2017-03-05T10:16:31.715Z,993.52
2017-03-05T10:17:31.774Z,993.6
2017-03-05T10:18:31.730Z,993.42
2017-03-05T10:19:31.735Z,993.46
2017-03-05T10:20:31.741Z,993.41
2017-03-05T10:21:31.749Z,993.39
2017-03-05T10:22:31.756Z,993.46
2017-03-05T10:23:31.761Z,993.5
2017-03-05T10:24:31.819Z,993.48
2017-03-05T10:25:31.776Z,993.48
2017-03-05T10:26:31.782Z,993.45
2017-03-05T10:27:31.788Z,993.35
2017-03-05T10:28:31.796Z,993.42
2017-03-05T10:29:31.800Z,993.44
2017-03-05T10:30:31.808Z,993.34
2017-03-05T10:31:31.813Z,993.37
2017-03-05T10:32:31.821Z,993.38
2017-03-05T10:33:31.828Z,993.35
2017-03-05T10:34:31.834Z,993.37
2017-03-05T10:35:31.890Z,993.34
2017-03-05T10:36:31.897Z,993.32
2017-03-05T10:37:31.854Z,993.38
2017-03-05T10:38:31.862Z,993.33
2017-03-05T10:39:31.867Z,993.36
2017-03-05T10:40:31.924Z,993.28
2017-03-05T10:41:31.880Z,993.26
2017-03-05T10:42:31.936Z,993.24
2017-03-05T10:43:31.893Z,993.26
2017-03-05T10:44:31.899Z,993.26
2017-03-05T10:45:31.906Z,993.26
2017-03-05T10:46:31.912Z,993.28
2017-03-05T10:47:31.917Z,993.29
2017-03-05T10:48:31.926Z,993.23
2017-03-05T10:49:32.633Z,993.25
2017-03-05T10:50:31.938Z,993.27
2017-03-05T10:51:31.943Z,993.29
2017-03-05T10:52:31.950Z,993.29
2017-03-05T10:53:31.958Z,993.39
2017-03-05T10:54:31.963Z,993.27
2017-03-05T10:55:32.022Z,993.32
2017-03-05T10:56:31.977Z,993.21
2017-03-05T10:57:31.985Z,993.25
2017-03-05T10:58:32.040Z,993.32
2017-03-05T10:59:31.997Z,993.28
2017-03-05T11:00:32.053Z,993.32
2017-03-05T11:01:32.011Z,993.31
2017-03-05T11:02:32.015Z,993.31
2017-03-05T11:03:32.072Z,993.21
2017-03-05T11:04:32.029Z,993.23
2017-03-05T11:05:32.035Z,993.26
2017-03-05T11:06:32.092Z,993.26
2017-03-05T11:07:32.097Z,993.21
2017-03-05T11:08:32.053Z,993.17
2017-03-05T11:09:32.112Z,993.2
2017-03-05T11:10:32.516Z,993.21
2017-03-05T11:11:32.622Z,993.2
2017-03-05T11:12:32.129Z,993.18
2017-03-05T11:13:32.085Z,993.2
2017-03-05T11:14:32.142Z,993.24
2017-03-05T11:15:32.097Z,993.15
2017-03-05T11:16:32.105Z,993.23
2017-03-05T11:17:32.160Z,993.25
2017-03-05T11:18:32.116Z,993.19
2017-03-05T11:19:32.122Z,993.1
2017-03-05T11:20:32.179Z,993.22
2017-03-05T11:21:32.136Z,993.14
2017-03-05T11:22:32.144Z,993.13
2017-03-05T11:23:32.150Z,993.1
2017-03-05T11:24:32.155Z,993.09
2017-03-05T11:25:32.210Z,993.11
2017-03-05T11:26:32.918Z,993.07
2017-03-05T11:27:32.224Z,993.14
2017-03-05T11:28:32.230Z,993.03
2017-03-05T11:29:32.185Z,993.03
2017-03-05T11:30:32.193Z,993.08
2017-03-05T11:31:32.200Z,992.97
2017-03-05T11:32:32.257Z,993.05
2017-03-05T11:33:32.212Z,992.97
2017-03-05T11:34:32.518Z,993.02
2017-03-05T11:35:32.275Z,992.97
2017-03-05T11:36:32.232Z,992.89
2017-03-05T11:37:32.237Z,993.02
2017-03-05T11:38:32.243Z,992.93
2017-03-05T11:39:32.254Z,992.95
2017-03-05T11:40:32.304Z,992.91
2017-03-05T11:41:32.312Z,992.88
2017-03-05T11:42:32.269Z,992.83
2017-03-05T11:43:32.274Z,992.89
2017-03-05T11:44:32.280Z,992.71
2017-03-05T11:45:32.339Z,992.95
2017-03-05T11:46:32.344Z,992.87
2017-03-05T11:47:32.300Z,992.87
2017-03-05T11:48:32.807Z,992.84
2017-03-05T11:49:32.316Z,992.78
2017-03-05T11:50:32.321Z,992.78
2017-03-05T11:51:32.323Z,992.85
2017-03-05T11:52:32.381Z,992.83
2017-03-05T11:53:32.338Z,992.76
2017-03-05T11:54:32.393Z,992.76
2017-03-05T11:55:32.351Z,992.78
2017-03-05T11:56:32.407Z,992.88
2017-03-05T11:57:33.532Z,992.73
2017-03-05T11:58:32.369Z,992.75
2017-03-05T11:59:32.427Z,992.73
2017-03-05T12:00:32.434Z,992.68
2017-03-05T12:01:32.388Z,992.7
2017-03-05T12:02:32.395Z,992.64
2017-03-05T12:03:32.402Z,992.58
2017-03-05T12:04:32.408Z,992.59
2017-03-05T12:05:32.412Z,992.64
2017-03-05T12:06:32.469Z,992.58
2017-03-05T12:07:32.427Z,992.57
2017-03-05T12:08:32.731Z,992.6
2017-03-05T12:09:32.488Z,992.48
2017-03-05T12:10:32.494Z,992.58
2017-03-05T12:11:32.449Z,992.59
2017-03-05T12:12:33.408Z,992.56
2017-03-05T12:13:32.462Z,992.5
2017-03-05T12:14:32.469Z,992.57
2017-03-05T12:15:32.525Z,992.45
2017-03-05T12:16:32.530Z,992.42
2017-03-05T12:17:32.486Z,992.5
2017-03-05T12:18:32.493Z,992.42
2017-03-05T12:19:32.500Z,992.46
2017-03-05T12:20:32.504Z,992.49
2017-03-05T12:21:32.512Z,992.46
2017-03-05T12:22:32.517Z,992.42
2017-03-05T12:23:32.524Z,992.47
2017-03-05T12:24:32.579Z,992.44
2017-03-05T12:25:32.536Z,992.33
2017-03-05T12:26:32.542Z,992.36
2017-03-05T12:27:32.548Z,992.41
2017-03-05T12:28:32.603Z,992.37
2017-03-05T12:29:32.560Z,992.3
2017-03-05T12:30:32.617Z,992.35
2017-03-05T12:31:32.572Z,992.31
2017-03-05T12:32:32.608Z,992.49